Terminal Aerodrome Forecast
Issued by NWS

Home | Current Version | Previous Version | Text Only | Print | Product List | Glossary On
Versions: 1 2 3 4 5 6 7 8 9 10 11 12 13 14
000
FTUS42 KMLB 170528
TAFISM
TAF
KISM 170528Z 1706/1806 10003KT P6SM FEW050
     FM170800 00000KT 5SM BR FEW004
      TEMPO 1710/1713 1SM BR SCT003
     FM171400 14006KT P6SM SCT040
     FM180000 11003KT P6SM FEW035=

USA.gov is the U.S. government's official web portal to all federal, state and local government web resources and services.